Time;durP1;ratioP1;P1;durP2;ratioP2;P2;SDS_P1;SDS_P2;PMS_P1;PMS_P2;Temp;Humidity;BMP_temperature;BMP_pressure;BME280_temperature;BME280_humidity;BME280_pressure;Samples;Min_cycle;Max_cycle;Signal;HPM_P1;HPM_P2
2022/08/13 00:00:00;;;;;;;3.50;1.40;;;;;;;18.70;55.02;101783.09;2064945;28;20129;-69
2022/08/13 00:01:04;;;;;;;2.45;1.60;;;;;;;18.68;54.97;101772.31;2064590;28;20113;-68
2022/08/13 00:02:10;;;;;;;3.65;1.50;;;;;;;18.67;54.95;101783.22;2064165;28;24080;-69
2022/08/13 00:03:14;;;;;;;3.88;1.63;;;;;;;18.73;55.59;101780.22;2072033;28;20097;-67
2022/08/13 00:04:41;;;;;;;3.60;1.60;;;;;;;18.76;55.46;101781.94;2069433;28;20043;-69
2022/08/13 00:05:43;;;;;;;4.13;1.27;;;;;;;18.76;55.13;101781.94;2064504;28;20070;-69
2022/08/13 00:08:04;;;;;;;3.03;1.70;;;;;;;18.82;54.71;101776.25;2063643;28;40369;-68
2022/08/13 00:09:09;;;;;;;2.55;1.58;;;;;;;18.87;54.41;101779.66;2064298;28;26482;-68
2022/08/13 00:10:22;;;;;;;2.35;0.95;;;;;;;18.86;54.75;101780.59;2064362;28;28398;-69
2022/08/13 00:13:06;;;;;;;3.00;1.05;;;;;;;18.85;54.82;101777.00;2064390;28;33183;-70
2022/08/13 00:14:13;;;;;;;4.85;1.30;;;;;;;18.86;54.71;101777.88;2064023;28;31539;-68
2022/08/13 00:15:43;;;;;;;2.65;1.25;;;;;;;18.89;54.26;101775.03;2064175;28;33628;-68
2022/08/13 00:16:45;;;;;;;2.95;1.20;;;;;;;18.92;54.36;101777.63;2064345;28;28903;-68
2022/08/13 00:17:52;;;;;;;4.43;1.70;;;;;;;18.94;53.96;101780.28;2064129;28;33195;-68
2022/08/13 00:19:03;;;;;;;3.85;1.23;;;;;;;19.01;54.20;101773.63;2063718;28;33232;-69
2022/08/13 00:20:07;;;;;;;5.60;1.10;;;;;;;19.02;53.82;101770.84;2064273;28;25772;-68
2022/08/13 00:21:09;;;;;;;3.45;1.73;;;;;;;19.09;53.96;101774.13;2064713;28;27162;-69
2022/08/13 00:22:12;;;;;;;3.78;1.30;;;;;;;19.06;53.55;101775.19;2063912;28;28681;-68
2022/08/13 00:23:31;;;;;;;7.63;1.55;;;;;;;19.17;53.17;101771.09;2071348;28;31139;-68
2022/08/13 00:24:53;;;;;;;3.20;1.80;;;;;;;19.17;53.15;101771.97;2069342;28;20027;-68
2022/08/13 00:25:58;;;;;;;3.97;1.20;;;;;;;19.15;53.42;101776.59;2064546;28;25669;-68
2022/08/13 00:27:01;;;;;;;4.72;1.42;;;;;;;19.16;53.32;101775.63;2064388;28;20892;-68
2022/08/13 00:28:04;;;;;;;5.50;1.20;;;;;;;19.16;53.46;101772.03;2064969;28;20043;-67
2022/08/13 00:29:10;;;;;;;6.13;1.48;;;;;;;19.12;52.99;101767.72;2064251;28;20047;-69
2022/08/13 00:30:15;;;;;;;4.38;1.40;;;;;;;19.11;53.12;101772.22;2064466;28;25336;-68
2022/08/13 00:31:17;;;;;;;4.85;1.40;;;;;;;19.07;53.32;101766.06;2063690;28;34743;-68
2022/08/13 00:32:30;;;;;;;3.75;1.30;;;;;;;19.07;53.68;101774.19;2064352;28;31239;-69
2022/08/13 00:33:33;;;;;;;4.88;1.40;;;;;;;19.09;53.08;101779.56;2063122;28;31926;-69
2022/08/13 00:34:49;;;;;;;2.63;1.10;;;;;;;19.02;53.09;101779.00;2064301;28;30202;-69
2022/08/13 00:35:53;;;;;;;7.80;1.58;;;;;;;19.15;53.31;101778.41;2064335;28;32184;-68
2022/08/13 00:36:55;;;;;;;3.15;1.27;;;;;;;19.11;53.06;101771.34;2063920;28;21618;-68
2022/08/13 00:38:15;;;;;;;3.03;0.98;;;;;;;19.11;52.47;101766.81;2071751;28;28331;-68
2022/08/13 00:39:16;;;;;;;3.58;1.38;;;;;;;19.12;53.07;101774.00;2070729;28;20039;-68
2022/08/13 00:40:19;;;;;;;3.95;1.55;;;;;;;19.12;53.00;101771.28;2064448;28;22008;-66
2022/08/13 00:41:38;;;;;;;3.47;1.38;;;;;;;19.11;53.21;101765.94;2063521;28;26490;-69
2022/08/13 00:43:03;;;;;;;1.90;1.42;;;;;;;19.13;52.86;101770.34;2064467;28;20326;-68
2022/08/13 00:44:15;;;;;;;3.78;1.20;;;;;;;19.08;53.23;101770.56;2064370;28;28330;-68
2022/08/13 00:45:20;;;;;;;3.83;1.70;;;;;;;19.16;53.23;101763.88;2064531;28;26008;-68
2022/08/13 00:46:21;;;;;;;3.22;1.63;;;;;;;19.08;52.80;101762.41;2064142;28;34068;-68
2022/08/13 00:48:54;;;;;;;2.92;1.10;;;;;;;18.98;53.09;101766.47;2064263;28;31016;-68
2022/08/13 00:49:58;;;;;;;3.20;1.15;;;;;;;18.97;53.38;101763.84;2063516;28;32601;-68
2022/08/13 00:51:08;;;;;;;3.92;1.08;;;;;;;18.95;53.45;101761.22;2064554;28;20023;-67
2022/08/13 00:52:10;;;;;;;3.72;1.30;;;;;;;18.92;53.64;101763.19;2064186;28;25924;-68
2022/08/13 00:53:18;;;;;;;5.90;1.05;;;;;;;18.94;53.71;101766.72;2064587;28;20042;-68
2022/08/13 00:54:22;;;;;;;1.85;1.17;;;;;;;18.92;53.66;101776.75;2063942;28;34354;-68
2022/08/13 00:55:26;;;;;;;3.85;1.40;;;;;;;18.94;53.70;101764.00;2063453;28;29815;-68
2022/08/13 00:56:34;;;;;;;3.35;1.27;;;;;;;18.91;53.52;101766.84;2063560;28;24493;-69
2022/08/13 00:57:37;;;;;;;3.13;1.45;;;;;;;18.88;53.68;101767.88;2064423;28;20081;-68
2022/08/13 00:58:42;;;;;;;3.50;1.30;;;;;;;18.84;53.51;101763.50;2071522;28;27566;-68
2022/08/13 00:59:47;;;;;;;4.47;0.90;;;;;;;18.84;53.84;101771.66;2063234;28;26614;-69
2022/08/13 01:00:56;;;;;;;3.13;1.23;;;;;;;18.79;53.90;101765.50;2056392;28;23067;-68
2022/08/13 01:01:58;;;;;;;5.32;1.50;;;;;;;18.76;54.10;101776.50;2063298;28;30066;-69
2022/08/13 01:03:01;;;;;;;4.82;1.45;;;;;;;18.75;54.32;101774.75;2064146;28;26516;-67
2022/08/13 01:04:23;;;;;;;3.58;1.00;;;;;;;18.72;54.50;101764.91;2063831;28;20105;-69
2022/08/13 01:05:26;;;;;;;;;;;;;;;18.68;54.74;101764.16;2064315;28;27218;-68
2022/08/13 01:06:29;;;;;;;2.95;1.13;;;;;;;18.67;54.74;101767.81;2063858;28;19929;-68
2022/08/13 01:07:31;;;;;;;5.32;1.05;;;;;;;18.68;54.59;101776.81;2064228;28;24892;-68
2022/08/13 01:08:53;;;;;;;2.92;1.38;;;;;;;18.64;54.71;101767.94;2063835;28;30810;-68
2022/08/13 01:09:55;;;;;;;3.63;1.35;;;;;;;18.65;55.34;101774.28;2064511;28;29132;-68
2022/08/13 01:11:18;;;;;;;2.60;1.15;;;;;;;18.64;55.01;101767.94;2064424;28;20773;-68
2022/08/13 01:12:25;;;;;;;3.40;1.30;;;;;;;18.65;54.71;101769.72;2062691;28;34376;-68
2022/08/13 01:13:29;;;;;;;3.60;1.25;;;;;;;18.66;54.84;101771.50;2063642;28;28326;-68
2022/08/13 01:14:33;;;;;;;5.85;1.40;;;;;;;18.67;54.59;101770.53;2063011;28;26113;-68
2022/08/13 01:15:36;;;;;;;3.53;1.00;;;;;;;18.63;54.56;101770.75;2063524;28;30019;-68
2022/08/13 01:16:56;;;;;;;4.93;1.10;;;;;;;18.58;54.63;101770.94;2063078;28;24829;-68
2022/08/13 01:17:58;;;;;;;2.33;1.10;;;;;;;18.52;54.99;101768.50;2063288;28;39068;-68
2022/08/13 01:19:03;;;;;;;3.65;1.08;;;;;;;18.48;55.17;101765.03;2063177;28;28179;-69
2022/08/13 01:20:09;;;;;;;3.58;1.20;;;;;;;18.45;55.72;101762.44;2064109;28;20035;-68
2022/08/13 01:21:20;;;;;;;3.33;1.08;;;;;;;18.40;55.37;101763.59;2063482;28;20035;-69
2022/08/13 01:22:25;;;;;;;3.17;1.33;;;;;;;18.36;55.97;101761.94;2063234;28;25527;-68
2022/08/13 01:23:31;;;;;;;2.88;1.25;;;;;;;18.33;56.10;101767.50;2064098;28;27203;-68
2022/08/13 01:24:34;;;;;;;1.95;1.25;;;;;;;18.29;56.33;101773.06;2063806;28;26907;-69
2022/08/13 01:25:37;;;;;;;2.75;1.40;;;;;;;18.26;56.27;101775.88;2063710;28;25438;-69
2022/08/13 01:26:44;;;;;;;3.35;1.10;;;;;;;18.23;56.08;101773.34;2063797;28;23095;-68
2022/08/13 01:27:52;;;;;;;4.07;1.40;;;;;;;18.19;56.68;101773.50;2063912;28;22592;-68
2022/08/13 01:28:54;;;;;;;4.70;0.90;;;;;;;18.15;56.90;101772.75;2063719;28;30099;-68
2022/08/13 01:29:56;;;;;;;5.43;1.25;;;;;;;18.11;57.15;101769.28;2063840;28;28529;-69
2022/08/13 01:31:04;;;;;;;5.38;1.50;;;;;;;18.07;57.49;101767.66;2063255;28;33062;-68
2022/08/13 01:32:15;;;;;;;2.83;1.38;;;;;;;18.03;57.35;101768.69;2064513;28;20043;-68
2022/08/13 01:33:18;;;;;;;3.13;1.25;;;;;;;18.00;58.14;101766.13;2064073;28;30668;-68
2022/08/13 01:34:22;;;;;;;5.70;1.60;;;;;;;17.95;57.76;101765.44;2063949;28;29849;-68
2022/08/13 01:35:26;;;;;;;2.08;1.48;;;;;;;17.90;58.17;101762.91;2063357;28;29202;-68
2022/08/13 01:36:29;;;;;;;4.35;1.40;;;;;;;17.85;58.41;101767.63;2064066;28;24885;-68
2022/08/13 01:37:51;;;;;;;4.45;1.40;;;;;;;17.81;58.61;101771.38;2064236;28;20035;-68
2022/08/13 01:38:53;;;;;;;2.83;1.25;;;;;;;17.78;58.94;101768.78;2063976;28;29264;-68
2022/08/13 01:39:54;;;;;;;6.57;1.40;;;;;;;17.75;58.97;101763.50;2063911;28;20899;-68
2022/08/13 01:40:57;;;;;;;3.97;1.30;;;;;;;17.72;58.96;101769.03;2063996;28;23929;-68
2022/08/13 01:42:01;;;;;;;3.25;1.33;;;;;;;17.69;59.08;101761.03;2062944;28;31986;-68
2022/08/13 01:43:03;;;;;;;2.95;1.45;;;;;;;17.68;58.80;101776.41;2063932;28;28701;-68
2022/08/13 01:44:31;;;;;;;3.40;1.35;;;;;;;17.64;59.45;101763.03;2062936;28;39809;-68
2022/08/13 01:45:35;;;;;;;3.40;1.33;;;;;;;17.62;59.57;101759.50;2063877;28;20056;-68
2022/08/13 01:50:46;;;;;;;2.97;1.13;;;;;;;17.50;60.11;101760.88;2063704;28;27408;-68
2022/08/13 01:51:48;;;;;;;3.75;1.55;;;;;;;17.48;60.26;101765.44;2062703;28;22319;-68
2022/08/13 01:52:54;;;;;;;4.90;1.30;;;;;;;17.45;60.52;101763.75;2062673;28;34389;-69
2022/08/13 01:53:58;;;;;;;2.33;1.23;;;;;;;17.44;60.68;101761.97;2063644;28;29970;-68
2022/08/13 01:55:05;;;;;;;3.05;1.35;;;;;;;17.42;60.56;101761.16;2063834;28;24061;-68
2022/08/13 01:56:09;;;;;;;3.17;1.60;;;;;;;17.44;61.10;101767.38;2063158;28;29529;-68
2022/08/13 01:57:18;;;;;;;1.95;1.30;;;;;;;17.43;60.79;101762.06;2064080;28;29550;-68
2022/08/13 01:58:23;;;;;;;3.35;1.45;;;;;;;17.43;61.20;101760.22;2063625;28;20047;-68
2022/08/13 01:59:34;;;;;;;4.22;1.40;;;;;;;17.46;61.54;101764.63;2063443;28;26897;-68
2022/08/13 02:00:45;;;;;;;3.13;1.80;;;;;;;17.47;61.88;101761.88;2063300;28;35080;-68
2022/08/13 02:01:47;;;;;;;3.80;1.20;;;;;;;17.49;61.38;101764.50;2063368;28;39564;-68
2022/08/13 02:02:51;;;;;;;3.80;1.70;;;;;;;17.51;61.32;101763.50;2063764;28;20873;-68
2022/08/13 02:03:56;;;;;;;4.53;1.45;;;;;;;17.55;61.94;101764.31;2063759;28;27503;-68
2022/08/13 02:04:57;;;;;;;2.78;1.52;;;;;;;17.60;60.69;101761.41;2063374;28;23159;-68
2022/08/13 02:06:02;;;;;;;6.80;1.60;;;;;;;17.62;60.97;101767.63;2063225;28;30565;-69
2022/08/13 02:07:23;;;;;;;5.35;1.70;;;;;;;17.65;60.67;101759.38;2063816;28;21054;-68
2022/08/13 02:08:26;;;;;;;3.67;1.60;;;;;;;17.74;60.28;101761.72;2062786;28;25737;-68
2022/08/13 02:09:28;;;;;;;3.80;2.00;;;;;;;17.77;60.21;101760.75;2062529;28;32402;-68
2022/08/13 02:10:54;;;;;;;3.55;1.60;;;;;;;17.74;60.16;101759.03;2063998;28;20051;-69
2022/08/13 02:11:56;;;;;;;5.68;1.35;;;;;;;17.76;59.94;101765.25;2064100;28;20070;-68
2022/08/13 02:12:59;;;;;;;5.78;1.52;;;;;;;17.79;59.64;101762.44;2063738;28;20843;-69
2022/08/13 02:14:04;;;;;;;6.07;1.60;;;;;;;17.80;59.71;101764.22;2064301;28;20807;-68
2022/08/13 02:15:07;;;;;;;5.78;1.80;;;;;;;17.78;59.58;101759.78;2063600;28;21045;-68
2022/08/13 02:16:10;;;;;;;2.30;1.52;;;;;;;17.77;59.07;101768.88;2063608;28;20054;-68
2022/08/13 02:17:27;;;;;;;2.92;1.63;;;;;;;17.77;59.65;101758.03;2063225;28;28256;-68
2022/08/13 02:18:53;;;;;;;5.65;1.80;;;;;;;17.78;59.85;101759.78;2063694;28;20820;-68
2022/08/13 02:19:55;;;;;;;5.65;1.80;;;;;;;17.77;60.34;101761.63;2062805;28;26426;-65
2022/08/13 02:20:59;;;;;;;4.00;1.80;;;;;;;17.78;59.55;101759.78;2062553;28;38135;-68
2022/08/13 02:22:01;;;;;;;4.38;1.60;;;;;;;17.75;59.61;101760.81;2063972;28;24561;-68
2022/08/13 02:23:08;;;;;;;3.85;1.83;;;;;;;17.79;59.57;101765.13;2063164;28;33142;-68
2022/08/13 02:24:14;;;;;;;3.20;1.42;;;;;;;17.75;59.89;101761.66;2063761;28;24587;-68
2022/08/13 02:25:20;;;;;;;6.28;1.58;;;;;;;17.74;59.81;101764.44;2070541;28;21522;-68
2022/08/13 02:26:29;;;;;;;4.13;1.25;;;;;;;17.72;59.63;101767.19;2070718;28;20081;-68
2022/08/13 02:27:31;;;;;;;4.00;2.00;;;;;;;17.72;59.98;101761.78;2063105;28;27733;-68
2022/08/13 02:28:37;;;;;;;3.67;1.58;;;;;;;17.74;60.03;101769.84;2063457;28;30365;-69
2022/08/13 02:29:44;;;;;;;3.90;1.60;;;;;;;17.72;59.85;101764.50;2062732;28;34022;-68
2022/08/13 02:30:50;;;;;;;2.80;1.55;;;;;;;17.66;59.99;101766.59;2064064;28;21115;-68
2022/08/13 02:31:56;;;;;;;3.88;1.60;;;;;;;17.66;60.18;101767.47;2063307;28;27951;-68
2022/08/13 02:33:08;;;;;;;4.60;1.63;;;;;;;17.64;60.44;101763.94;2063995;28;20042;-69
2022/08/13 02:34:11;;;;;;;4.85;1.45;;;;;;;17.64;60.07;101769.34;2063161;28;30984;-69
2022/08/13 02:35:17;;;;;;;3.42;1.70;;;;;;;17.65;60.31;101768.38;2064162;28;20131;-68
2022/08/13 02:36:22;;;;;;;5.50;1.50;;;;;;;17.64;60.16;101771.16;2071232;28;20085;-68
2022/08/13 02:37:31;;;;;;;7.55;1.60;;;;;;;17.64;60.15;101772.06;2070398;28;30767;-68
2022/08/13 02:38:42;;;;;;;4.43;1.80;;;;;;;17.66;59.98;101761.16;2063673;28;24997;-69
2022/08/13 02:39:44;;;;;;;6.15;2.05;;;;;;;17.65;59.87;101775.63;2063491;28;31416;-69
2022/08/13 02:42:12;;;;;;;4.90;1.60;;;;;;;17.70;60.00;101762.81;2063067;28;23929;-68
2022/08/13 02:43:20;;;;;;;5.60;1.30;;;;;;;17.66;59.62;101769.28;2064127;28;20031;-69
2022/08/13 02:44:25;;;;;;;2.75;1.67;;;;;;;17.68;59.72;101764.69;2063394;28;23933;-69
2022/08/13 02:45:35;;;;;;;3.65;1.48;;;;;;;17.66;59.54;101766.59;2064271;28;24365;-68
2022/08/13 02:46:44;;;;;;;4.72;1.48;;;;;;;17.63;60.13;101762.16;2063180;28;31705;-68
2022/08/13 02:47:48;;;;;;;5.45;1.45;;;;;;;17.64;59.56;101768.44;2063545;28;26251;-68
2022/08/13 02:48:52;;;;;;;3.70;1.60;;;;;;;17.62;60.00;101762.22;2063749;28;20031;-68
2022/08/13 02:49:54;;;;;;;4.30;1.30;;;;;;;17.64;59.41;101763.03;2063095;28;28443;-69
2022/08/13 02:50:57;;;;;;;3.33;1.40;;;;;;;17.63;59.53;101767.56;2063479;28;20794;-69
2022/08/13 02:51:59;;;;;;;3.90;1.58;;;;;;;17.65;59.56;101762.97;2063207;28;22277;-68
2022/08/13 02:53:10;;;;;;;5.05;1.63;;;;;;;17.66;59.10;101763.88;2063864;28;20161;-68
2022/08/13 02:54:17;;;;;;;1.70;1.10;;;;;;;17.65;59.34;101767.50;2063441;28;26159;-68
2022/08/13 02:55:24;;;;;;;4.15;1.40;;;;;;;17.63;59.49;101769.41;2063128;28;30614;-68
2022/08/13 02:56:29;;;;;;;3.45;1.40;;;;;;;17.62;59.71;101770.34;2062741;28;35215;-68
2022/08/13 02:57:31;;;;;;;6.25;1.73;;;;;;;17.62;59.50;101770.34;2062750;28;25829;-68
2022/08/13 02:58:36;;;;;;;7.47;1.50;;;;;;;17.68;59.71;101770.97;2062887;28;29857;-68
2022/08/13 02:59:38;;;;;;;2.95;1.27;;;;;;;17.72;59.12;101763.63;2063340;28;23737;-68
2022/08/13 03:01:02;;;;;;;4.80;1.63;;;;;;;17.74;59.23;101772.56;2063849;28;20039;-68
2022/08/13 03:02:06;;;;;;;4.28;1.50;;;;;;;17.77;59.45;101768.88;2062542;28;27996;-68
2022/08/13 03:03:08;;;;;;;2.90;1.30;;;;;;;17.71;59.34;101775.38;2061703;28;32212;-68
2022/08/13 03:04:13;;;;;;;4.03;1.58;;;;;;;17.69;59.21;101769.16;2062777;28;30181;-69
2022/08/13 03:05:19;;;;;;;4.97;1.33;;;;;;;17.70;59.43;101769.09;2063197;28;25393;-68
2022/08/13 03:06:22;;;;;;;5.22;1.25;;;;;;;17.77;59.07;101766.16;2063975;28;21002;-68
2022/08/13 03:07:25;;;;;;;4.78;1.55;;;;;;;17.80;59.29;101769.63;2062824;28;31094;-69
2022/08/13 03:08:28;;;;;;;4.57;1.50;;;;;;;17.80;58.32;101763.31;2063511;28;39143;-68
2022/08/13 03:09:39;;;;;;;6.47;1.60;;;;;;;17.77;58.28;101760.75;2063039;28;20663;-69
2022/08/13 03:10:45;;;;;;;3.33;1.67;;;;;;;17.75;58.93;101768.94;2063092;28;25792;-68
2022/08/13 03:11:50;;;;;;;3.28;1.10;;;;;;;17.72;59.06;101760.91;2062333;28;28689;-69
2022/08/13 03:13:03;;;;;;;4.05;1.52;;;;;;;17.72;58.75;101767.19;2062949;28;24320;-68
2022/08/13 03:14:09;;;;;;;4.65;1.80;;;;;;;17.74;58.73;101773.44;2063564;28;27698;-68
2022/08/13 03:15:13;;;;;;;2.58;1.25;;;;;;;17.72;58.90;101769.03;2062325;28;31971;-69
2022/08/13 03:16:23;;;;;;;7.55;1.73;;;;;;;17.75;58.43;101768.94;2063011;28;21483;-68
2022/08/13 03:17:25;;;;;;;4.55;1.50;;;;;;;17.74;58.67;101768.03;2062370;28;28873;-68
2022/08/13 03:18:30;;;;;;;3.40;1.40;;;;;;;17.75;58.52;101771.63;2063010;28;26178;-68
2022/08/13 03:19:34;;;;;;;4.40;1.42;;;;;;;17.82;58.59;101772.25;2062763;28;37776;-69
2022/08/13 03:20:36;;;;;;;6.03;1.50;;;;;;;17.78;58.85;101768.78;2063637;28;20042;-68
2022/08/13 03:21:42;;;;;;;7.43;1.90;;;;;;;17.80;58.56;101772.34;2062659;28;30111;-69
2022/08/13 03:22:58;;;;;;;10.32;2.00;;;;;;;17.82;58.38;101772.25;2063543;28;24841;-69
2022/08/13 03:24:00;;;;;;;10.70;1.60;;;;;;;17.82;58.46;101773.16;2063205;28;33809;-68
2022/08/13 03:25:06;;;;;;;7.90;2.03;;;;;;;17.79;58.68;101772.41;2063830;28;21969;-68
2022/08/13 03:26:07;;;;;;;4.57;1.50;;;;;;;17.74;58.30;101772.56;2062492;28;35058;-68
2022/08/13 03:27:09;;;;;;;4.13;1.65;;;;;;;17.72;58.70;101778.03;2062917;28;24791;-68
2022/08/13 03:28:11;;;;;;;5.75;1.48;;;;;;;17.69;58.56;101777.28;2062839;28;29310;-68
2022/08/13 03:29:17;;;;;;;2.15;1.42;;;;;;;17.69;59.21;101774.56;2062898;28;29960;-68
2022/08/13 03:30:22;;;;;;;8.00;1.63;;;;;;;17.76;58.72;101776.09;2063091;28;32730;-68
2022/08/13 03:31:27;;;;;;;9.05;1.88;;;;;;;17.72;59.05;101778.03;2063873;28;20046;-68
2022/08/13 03:32:35;;;;;;;8.27;1.70;;;;;;;17.73;59.26;101778.94;2064138;28;20043;-68
2022/08/13 03:33:37;;;;;;;13.02;1.85;;;;;;;17.74;59.40;101780.69;2063364;28;29211;-69
2022/08/13 03:34:41;;;;;;;4.60;1.65;;;;;;;17.69;58.67;101780.88;2063015;28;28417;-68
2022/08/13 03:35:44;;;;;;;7.22;1.80;;;;;;;17.68;58.98;101772.81;2063460;28;23621;-68
2022/08/13 03:36:49;;;;;;;6.03;1.90;;;;;;;17.67;59.74;101777.31;2062696;28;29815;-68
2022/08/13 03:37:54;;;;;;;6.40;1.88;;;;;;;17.65;59.38;101775.63;2063089;28;36871;-68
2022/08/13 03:39:03;;;;;;;6.60;1.92;;;;;;;17.60;60.04;101772.22;2063366;28;30445;-69
2022/08/13 03:40:08;;;;;;;6.03;1.70;;;;;;;17.53;59.81;101772.47;2063588;28;20806;-68
2022/08/13 03:41:14;;;;;;;5.57;1.50;;;;;;;17.49;59.79;101767.22;2063591;28;20133;-68
2022/08/13 03:42:16;;;;;;;3.67;1.38;;;;;;;17.44;60.34;101775.50;2062560;28;29669;-68
2022/08/13 03:43:21;;;;;;;8.23;1.80;;;;;;;17.42;60.82;101774.69;2063194;28;29194;-68
2022/08/13 03:44:24;;;;;;;7.35;1.23;;;;;;;17.37;60.66;101765.84;2062774;28;27374;-69
2022/08/13 03:45:31;;;;;;;4.10;1.45;;;;;;;17.33;61.04;101778.63;2062874;28;25692;-67
2022/08/13 03:46:33;;;;;;;6.97;1.48;;;;;;;17.28;60.86;101775.25;2062718;28;31192;-68
2022/08/13 03:47:39;;;;;;;6.13;1.80;;;;;;;17.22;61.47;101771.88;2062884;28;30304;-68
2022/08/13 03:48:45;;;;;;;4.13;1.20;;;;;;;17.22;61.40;101777.28;2062902;28;28528;-68
2022/08/13 03:49:47;;;;;;;7.00;1.40;;;;;;;17.16;61.34;101776.56;2062650;28;30425;-72
2022/08/13 03:50:48;;;;;;;7.60;1.80;;;;;;;17.12;61.53;101766.81;2062206;28;30511;-72
2022/08/13 03:51:53;;;;;;;5.18;1.50;;;;;;;17.07;62.08;101763.38;2062681;28;37181;-71
2022/08/13 03:53:01;;;;;;;5.10;1.20;;;;;;;17.02;62.27;101762.66;2062369;28;30160;-68
2022/08/13 03:54:03;;;;;;;3.45;1.35;;;;;;;16.97;62.72;101770.06;2062113;28;35202;-69
2022/08/13 03:55:12;;;;;;;7.88;1.77;;;;;;;16.89;62.72;101764.94;2069042;28;20038;-69
2022/08/13 03:56:18;;;;;;;;;;;;;;;16.88;63.73;101765.00;2060119;28;20424;-70
2022/08/13 03:57:22;;;;;;;4.05;1.40;;;;;;;16.80;63.59;101768.81;2075917;28;30099;-69
2022/08/13 03:58:26;;;;;;;3.60;1.73;;;;;;;16.71;63.04;101766.44;2069935;28;23446;-67
2022/08/13 03:59:31;;;;;;;10.65;2.00;;;;;;;16.72;64.15;101776.31;2062752;28;22168;-67
2022/08/13 04:00:47;;;;;;;4.82;1.50;;;;;;;16.68;63.58;101771.09;2062654;28;20351;-67
2022/08/13 04:01:51;;;;;;;2.47;1.10;;;;;;;16.66;63.52;101776.53;2067444;28;20043;-67
2022/08/13 04:03:00;;;;;;;5.30;1.85;;;;;;;16.60;63.85;101771.34;2069842;28;33262;-67
2022/08/13 04:04:06;;;;;;;7.10;2.38;;;;;;;16.61;63.91;101773.09;2063288;28;33885;-67
2022/08/13 04:05:17;;;;;;;3.22;1.38;;;;;;;16.58;64.34;101775.91;2070037;28;27009;-67
2022/08/13 04:06:25;;;;;;;10.07;1.70;;;;;;;16.58;64.05;101770.50;2071060;28;23226;-67
2022/08/13 04:07:28;;;;;;;6.80;1.40;;;;;;;16.56;64.21;101777.78;2070195;28;30404;-66
2022/08/13 04:08:35;;;;;;;6.03;1.70;;;;;;;16.54;64.58;101774.25;2070453;28;27284;-65
2022/08/13 04:09:36;;;;;;;5.30;1.65;;;;;;;16.49;64.80;101781.63;2071951;28;20163;-66
2022/08/13 04:10:41;;;;;;;4.30;1.25;;;;;;;16.46;64.79;101776.34;2071585;28;40126;-65
2022/08/13 04:11:51;;;;;;;4.93;1.83;;;;;;;16.41;64.71;101774.66;2071865;28;32598;-66
2022/08/13 04:12:56;;;;;;;5.95;1.80;;;;;;;16.39;64.73;101773.84;2071641;28;30750;-66
2022/08/13 04:14:00;;;;;;;7.82;1.85;;;;;;;16.40;65.51;101780.13;2067245;28;32747;-65
2022/08/13 04:15:08;;;;;;;4.18;1.65;;;;;;;16.39;65.17;101776.53;2064539;28;24314;-68
2022/08/13 04:16:20;;;;;;;2.40;1.80;;;;;;;16.42;65.26;101776.44;2063450;28;31907;-68
2022/08/13 04:17:22;;;;;;;5.85;1.60;;;;;;;16.46;65.04;101782.63;2055415;28;26186;-66
2022/08/13 04:18:28;;;;;;;7.22;1.55;;;;;;;16.49;65.55;101771.72;2057988;28;20979;-67
2022/08/13 04:19:32;;;;;;;6.03;2.13;;;;;;;16.53;64.92;101772.50;2062953;28;39774;-68
2022/08/13 04:20:34;;;;;;;6.47;1.80;;;;;;;16.54;64.94;101775.13;2063788;28;22758;-69
2022/08/13 04:21:37;;;;;;;5.50;2.40;;;;;;;16.59;65.29;101781.28;2063843;28;21342;-68
2022/08/13 04:22:39;;;;;;;4.13;1.70;;;;;;;16.67;65.55;101774.72;2064255;28;20038;-68
2022/08/13 04:23:45;;;;;;;6.22;2.05;;;;;;;16.65;64.52;101782.00;2063432;28;31451;-68
2022/08/13 04:24:46;;;;;;;4.63;2.10;;;;;;;16.69;64.84;101778.25;2071165;28;29332;-68
2022/08/13 04:25:50;;;;;;;6.25;2.50;;;;;;;16.74;64.29;101778.97;2070787;28;38213;-68
2022/08/13 04:26:51;;;;;;;4.13;1.83;;;;;;;16.73;63.87;101779.91;2055570;28;27703;-68
2022/08/13 04:27:55;;;;;;;4.72;1.75;;;;;;;16.75;63.79;101787.03;2062835;28;27712;-68
2022/08/13 04:29:04;;;;;;;5.78;1.60;;;;;;;16.77;64.53;101782.44;2062451;28;22669;-68
2022/08/13 04:30:09;;;;;;;5.75;2.20;;;;;;;16.87;64.59;101779.44;2066317;28;28191;-68
2022/08/13 04:31:15;;;;;;;6.35;2.28;;;;;;;16.88;63.92;101786.63;2071442;28;32452;-68
2022/08/13 04:32:23;;;;;;;6.07;2.00;;;;;;;17.02;63.48;101768.06;2071495;28;35564;-68
2022/08/13 04:33:28;;;;;;;;;;;;;;;17.24;63.43;101767.28;2071960;28;29114;-70
2022/08/13 04:34:50;;;;;;;5.88;1.92;;;;;;;17.69;61.47;101767.34;2072125;28;19929;-69
2022/08/13 04:35:52;;;;;;;5.82;1.98;;;;;;;18.06;60.16;101767.72;2071620;28;38051;-69
2022/08/13 04:37:01;;;;;;;10.90;2.00;;;;;;;18.42;59.19;101764.41;2071305;28;30185;-70
2022/08/13 04:38:05;;;;;;;4.47;2.00;;;;;;;18.85;58.05;101770.72;2072371;28;20884;-69
2022/08/13 04:39:07;;;;;;;6.10;2.10;;;;;;;19.19;56.76;101764.63;2071374;28;31845;-69
2022/08/13 04:40:13;;;;;;;6.25;1.77;;;;;;;19.58;55.63;101765.56;2071531;28;20983;-67
2022/08/13 04:41:30;;;;;;;4.72;1.98;;;;;;;19.97;54.19;101761.88;2071338;28;26458;-68
2022/08/13 04:42:53;;;;;;;4.82;2.00;;;;;;;20.32;53.27;101762.84;2072200;28;26432;-70
2022/08/13 04:43:55;;;;;;;5.22;1.70;;;;;;;20.76;52.87;101758.81;2071774;28;20224;-69
2022/08/13 04:45:02;;;;;;;4.50;2.00;;;;;;;21.16;51.65;101765.72;2071362;28;20045;-69
2022/08/13 04:46:05;;;;;;;3.72;1.30;;;;;;;21.60;50.60;101758.81;2072470;28;20038;-70
2022/08/13 04:47:07;;;;;;;6.93;1.67;;;;;;;21.89;49.63;101765.34;2071556;28;24409;-69
2022/08/13 04:48:13;;;;;;;5.28;1.88;;;;;;;22.25;48.85;101756.00;2071612;28;31545;-71
2022/08/13 04:49:17;;;;;;;4.93;1.80;;;;;;;22.60;47.73;101755.75;2071376;28;20038;-67
2022/08/13 04:50:19;;;;;;;5.43;1.67;;;;;;;22.93;47.33;101745.56;2071121;28;36191;-68
2022/08/13 04:51:23;;;;;;;4.57;1.70;;;;;;;23.34;46.36;101756.66;2071837;28;23587;-69
2022/08/13 04:52:25;;;;;;;3.33;1.50;;;;;;;23.74;45.50;101764.13;2071085;28;35588;-69
2022/08/13 04:53:35;;;;;;;4.65;1.30;;;;;;;24.12;44.38;101760.72;2056020;28;24478;-68
2022/08/13 04:54:37;;;;;;;4.65;1.50;;;;;;;24.42;43.72;101748.69;2064798;28;29503;-70
2022/08/13 04:55:39;;;;;;;3.95;1.38;;;;;;;24.73;43.18;101751.09;2071048;28;27634;-70
2022/08/13 04:56:58;;;;;;;6.22;2.00;;;;;;;25.17;42.10;101756.28;2055982;28;21039;-70
2022/08/13 04:58:00;;;;;;;7.25;1.80;;;;;;;25.48;41.79;101744.88;2055826;28;20908;-68
2022/08/13 04:59:03;;;;;;;6.40;1.70;;;;;;;25.78;40.63;101748.19;2055810;28;21312;-67
2022/08/13 05:00:06;;;;;;;5.97;1.60;;;;;;;26.10;39.90;101745.81;2054760;28;32416;-68
2022/08/13 05:01:11;;;;;;;5.00;1.55;;;;;;;26.35;39.62;101743.94;2054630;28;27778;-67
2022/08/13 05:02:43;;;;;;;6.03;2.20;;;;;;;26.08;38.68;101748.66;2055480;28;20039;-69
2022/08/13 05:03:45;;;;;;;5.82;2.10;;;;;;;26.07;38.40;101743.28;2046417;28;29398;-68
2022/08/13 05:04:48;;;;;;;6.38;1.95;;;;;;;26.38;38.47;101751.91;2047629;28;29480;-68
2022/08/13 05:05:52;;;;;;;5.45;1.80;;;;;;;26.25;38.38;101744.63;2055601;28;29186;-68
2022/08/13 05:06:55;;;;;;;9.88;1.85;;;;;;;26.34;37.74;101748.53;2055128;28;20166;-68
2022/08/13 05:07:57;;;;;;;5.03;1.67;;;;;;;26.53;37.31;101752.63;2054867;28;20047;-68
2022/08/13 05:09:01;;;;;;;6.47;1.88;;;;;;;26.43;36.78;101747.84;2055762;28;24930;-69
2022/08/13 05:10:05;;;;;;;7.47;1.83;;;;;;;26.57;37.51;101744.00;2054502;28;33178;-69
2022/08/13 05:11:12;;;;;;;5.00;1.77;;;;;;;26.67;37.17;101750.56;2054529;28;37153;-72
2022/08/13 05:12:15;;;;;;;4.53;1.75;;;;;;;26.62;37.54;101747.28;2055029;28;20109;-69
2022/08/13 05:13:36;;;;;;;4.80;1.70;;;;;;;27.09;36.74;101752.78;2055208;28;29502;-70
2022/08/13 05:14:46;;;;;;;7.63;1.98;;;;;;;26.33;37.75;101745.94;2055568;28;25017;-69
2022/08/13 05:15:48;;;;;;;3.92;1.70;;;;;;;27.25;36.72;101749.66;2055872;28;20043;-67
2022/08/13 05:16:50;;;;;;;3.95;1.95;;;;;;;27.58;35.75;101746.06;2055645;28;21949;-68
2022/08/13 05:17:56;;;;;;;5.40;1.98;;;;;;;27.99;34.76;101743.63;2055401;28;37008;-68
2022/08/13 05:18:58;;;;;;;7.63;1.95;;;;;;;27.80;35.40;101742.41;2055641;28;20281;-68